Time;durP1;ratioP1;P1;durP2;ratioP2;P2;SDS_P1;SDS_P2;PMS_P1;PMS_P2;Temp;Humidity;BMP_temperature;BMP_pressure;BME280_temperature;BME280_humidity;BME280_pressure;Samples;Min_cycle;Max_cycle;Signal;HPM_P1;HPM_P2
2022/05/24 00:00:19;;;;;;;4.57;3.73;;;;;;;;;;4998226;28;20489;-53
2022/05/24 00:02:44;;;;;;;4.55;4.00;;;;;;;;;;4986654;28;20815;-50
2022/05/24 00:05:10;;;;;;;5.15;3.38;;;;;;;;;;5000172;28;20049;-49
2022/05/24 00:07:36;;;;;;;7.07;3.88;;;;;;;;;;4997076;28;20052;-51
2022/05/24 00:10:01;;;;;;;6.05;3.72;;;;;;;;;;4998347;28;20056;-51
2022/05/24 00:12:26;;;;;;;6.68;3.30;;;;;;;;;;4988889;28;20026;-50
2022/05/24 00:17:36;;;;;;;7.13;4.10;;;;;;;;;;4997127;28;22042;-51
2022/05/24 00:20:02;;;;;;;6.20;4.28;;;;;;;;;;4996968;28;20045;-50
2022/05/24 00:22:27;;;;;;;5.10;3.92;;;;;;;;;;4999577;28;20495;-50
2022/05/24 00:24:53;;;;;;;6.80;3.90;;;;;;;;;;4984625;28;20058;-50
2022/05/24 00:27:18;;;;;;;6.47;3.70;;;;;;;;;;4999292;28;20022;-50
2022/05/24 00:29:43;;;;;;;5.83;3.80;;;;;;;;;;4999771;28;20132;-51
2022/05/24 00:32:08;;;;;;;5.83;3.60;;;;;;;;;;4997963;28;20331;-50
2022/05/24 00:34:34;;;;;;;6.10;3.87;;;;;;;;;;5013231;28;20088;-52
2022/05/24 00:36:59;;;;;;;6.20;3.60;;;;;;;;;;4999597;28;20273;-50
2022/05/24 00:39:24;;;;;;;6.30;3.78;;;;;;;;;;5001493;28;20820;-52
2022/05/24 00:41:55;;;;;;;4.80;3.50;;;;;;;;;;4982180;28;20081;-51
2022/05/24 00:44:21;;;;;;;5.82;3.40;;;;;;;;;;4990485;28;20018;-50
2022/05/24 00:46:55;;;;;;;6.95;3.78;;;;;;;;;;4998202;28;20018;-50
2022/05/24 00:49:23;;;;;;;5.80;3.78;;;;;;;;;;5001109;28;20389;-50
2022/05/24 00:51:49;;;;;;;5.95;3.42;;;;;;;;;;4986674;28;20018;-50
2022/05/24 00:54:14;;;;;;;5.45;3.33;;;;;;;;;;5012190;28;20022;-50
2022/05/24 00:56:40;;;;;;;5.60;3.58;;;;;;;;;;5016050;28;20057;-51
2022/05/24 00:59:06;;;;;;;7.88;3.40;;;;;;;;;;5002828;28;20318;-52
2022/05/24 01:01:35;;;;;;;5.28;3.50;;;;;;;;;;5015920;28;20038;-52
2022/05/24 01:04:00;;;;;;;6.22;3.65;;;;;;;;;;4993325;28;20030;-51
2022/05/24 01:06:25;;;;;;;7.03;4.00;;;;;;;;;;4998334;28;20154;-49
2022/05/24 01:08:51;;;;;;;5.20;3.70;;;;;;;;;;4998241;28;20032;-52
2022/05/24 01:11:17;;;;;;;6.07;3.97;;;;;;;;;;5002035;28;20728;-51
2022/05/24 01:13:42;;;;;;;6.18;3.92;;;;;;;;;;4999559;28;20402;-53
2022/05/24 01:16:07;;;;;;;4.87;3.20;;;;;;;;;;5004733;28;20116;-51
2022/05/24 01:18:32;;;;;;;5.10;3.20;;;;;;;;;;5004177;28;20272;-52
2022/05/24 01:21:04;;;;;;;5.17;3.40;;;;;;;;;;5002295;28;20865;-52
2022/05/24 01:23:48;;;;;;;6.70;3.58;;;;;;;;;;5006194;28;20022;-50
2022/05/24 01:26:16;;;;;;;4.70;3.03;;;;;;;;;;5002321;28;20022;-53
2022/05/24 01:28:43;;;;;;;4.88;3.28;;;;;;;;;;5004897;28;20038;-49
2022/05/24 01:31:09;;;;;;;7.28;2.90;;;;;;;;;;5005076;28;20314;-50
2022/05/24 01:36:19;;;;;;;4.78;3.00;;;;;;;;;;5015148;28;20025;-51
2022/05/24 01:38:51;;;;;;;5.15;3.05;;;;;;;;;;5015536;28;20052;-52
2022/05/24 01:41:20;;;;;;;4.65;2.50;;;;;;;;;;5016071;28;20061;-52
2022/05/24 01:43:47;;;;;;;5.15;3.08;;;;;;;;;;4994740;28;20040;-50
2022/05/24 01:46:13;;;;;;;3.83;3.03;;;;;;;;;;5001533;28;20116;-52
2022/05/24 01:48:41;;;;;;;4.40;2.65;;;;;;;;;;5013161;28;20569;-50
2022/05/24 01:51:06;;;;;;;7.15;2.65;;;;;;;;;;4999538;28;20017;-50
2022/05/24 01:53:37;;;;;;;4.90;3.10;;;;;;;;;;5015958;28;20021;-51
2022/05/24 01:56:02;;;;;;;3.03;2.40;;;;;;;;;;5000346;28;20030;-51
2022/05/24 01:58:28;;;;;;;4.20;2.45;;;;;;;;;;5016257;28;20091;-52
2022/05/24 02:00:55;;;;;;;4.35;2.65;;;;;;;;;;5013701;28;20052;-51
2022/05/24 02:03:20;;;;;;;4.82;2.30;;;;;;;;;;5019180;28;20025;-51
2022/05/24 02:05:46;;;;;;;3.38;2.58;;;;;;;;;;5002175;28;20041;-51
2022/05/24 02:08:12;;;;;;;4.80;2.47;;;;;;;;;;5001525;28;20563;-50
2022/05/24 02:10:39;;;;;;;5.90;2.60;;;;;;;;;;5003208;28;20026;-50
2022/05/24 02:13:04;;;;;;;5.25;2.92;;;;;;;;;;5000771;28;20034;-50
2022/05/24 02:15:30;;;;;;;3.40;2.23;;;;;;;;;;5016147;28;20026;-51
2022/05/24 02:18:16;;;;;;;3.28;2.65;;;;;;;;;;5017070;28;20296;-50
2022/05/24 02:20:42;;;;;;;2.63;2.25;;;;;;;;;;4998452;28;20590;-50
2022/05/24 02:23:07;;;;;;;3.15;2.35;;;;;;;;;;5000733;28;20134;-51
2022/05/24 02:25:40;;;;;;;4.43;2.50;;;;;;;;;;4999679;28;20442;-50
2022/05/24 02:28:08;;;;;;;4.50;2.60;;;;;;;;;;5019092;28;20022;-50
2022/05/24 02:30:33;;;;;;;5.85;2.40;;;;;;;;;;5004111;28;20543;-50
2022/05/24 02:32:59;;;;;;;4.35;2.50;;;;;;;;;;4998860;28;20034;-51
2022/05/24 02:35:24;;;;;;;4.47;2.57;;;;;;;;;;4998978;28;20038;-50
2022/05/24 02:37:49;;;;;;;3.80;2.90;;;;;;;;;;4991991;28;20114;-50
2022/05/24 02:42:59;;;;;;;4.60;2.75;;;;;;;;;;4997936;28;20388;-52
2022/05/24 02:45:24;;;;;;;5.83;2.80;;;;;;;;;;4991395;28;20497;-51
2022/05/24 02:47:49;;;;;;;5.97;2.60;;;;;;;;;;5001984;28;20261;-51
2022/05/24 02:50:14;;;;;;;4.20;2.50;;;;;;;;;;5002071;28;20257;-51
2022/05/24 02:52:40;;;;;;;4.13;2.33;;;;;;;;;;4996756;28;20272;-50
2022/05/24 02:55:06;;;;;;;3.90;2.40;;;;;;;;;;4995081;28;20029;-50
2022/05/24 02:57:31;;;;;;;5.18;2.30;;;;;;;;;;5003435;28;20080;-50
2022/05/24 02:59:57;;;;;;;3.73;2.30;;;;;;;;;;5003911;28;20026;-50
2022/05/24 03:02:22;;;;;;;7.10;2.60;;;;;;;;;;5002041;28;20108;-51
2022/05/24 03:04:47;;;;;;;5.40;2.60;;;;;;;;;;5002715;28;20108;-50
2022/05/24 03:09:56;;;;;;;3.97;2.78;;;;;;;;;;5000691;28;20108;-50
2022/05/24 03:15:05;;;;;;;3.63;2.10;;;;;;;;;;4991048;28;20041;-49
2022/05/24 03:17:31;;;;;;;5.95;2.55;;;;;;;;;;5000386;28;20029;-50
2022/05/24 03:19:56;;;;;;;4.80;2.42;;;;;;;;;;5001321;28;20499;-50
2022/05/24 03:22:22;;;;;;;4.60;2.90;;;;;;;;;;4995125;28;20116;-53
2022/05/24 03:24:47;;;;;;;4.95;2.85;;;;;;;;;;4997080;28;20021;-52
2022/05/24 03:27:13;;;;;;;4.65;2.70;;;;;;;;;;4999113;28;20044;-51
2022/05/24 03:29:38;;;;;;;4.03;2.83;;;;;;;;;;5001204;28;20085;-53
2022/05/24 03:32:05;;;;;;;5.47;2.53;;;;;;;;;;5000311;28;20045;-52
2022/05/24 03:34:30;;;;;;;4.43;3.08;;;;;;;;;;4999279;28;20072;-50
2022/05/24 03:36:55;;;;;;;6.00;2.72;;;;;;;;;;5012752;28;20026;-52
2022/05/24 03:39:21;;;;;;;6.32;2.80;;;;;;;;;;4998961;28;20022;-51
2022/05/24 03:41:46;;;;;;;4.07;2.73;;;;;;;;;;4997124;28;20109;-52
2022/05/24 03:44:11;;;;;;;6.07;2.83;;;;;;;;;;4999025;28;20835;-51
2022/05/24 03:46:37;;;;;;;4.07;2.75;;;;;;;;;;4996848;28;20260;-50
2022/05/24 03:49:03;;;;;;;4.32;2.67;;;;;;;;;;4997236;28;20041;-59
2022/05/24 03:51:29;;;;;;;6.70;2.97;;;;;;;;;;5000057;28;20014;-53
2022/05/24 03:53:54;;;;;;;6.13;3.10;;;;;;;;;;5000070;28;20025;-52
2022/05/24 03:56:19;;;;;;;7.53;2.87;;;;;;;;;;4999229;28;20009;-53
2022/05/24 03:58:44;;;;;;;3.70;2.83;;;;;;;;;;5001861;28;20141;-51
2022/05/24 04:01:10;;;;;;;4.93;2.80;;;;;;;;;;5001578;28;20034;-50
2022/05/24 04:03:36;;;;;;;5.68;2.90;;;;;;;;;;4998635;28;20052;-52
2022/05/24 04:06:01;;;;;;;6.00;2.97;;;;;;;;;;4999024;28;20057;-53
2022/05/24 04:08:27;;;;;;;7.27;2.90;;;;;;;;;;4995785;28;20083;-53
2022/05/24 04:11:02;;;;;;;10.40;3.28;;;;;;;;;;4998318;28;20109;-52
2022/05/24 04:13:27;;;;;;;4.85;2.55;;;;;;;;;;4986847;28;20022;-53
2022/05/24 04:15:52;;;;;;;8.70;3.00;;;;;;;;;;4995478;28;20030;-52
2022/05/24 04:18:18;;;;;;;5.67;2.60;;;;;;;;;;4997748;28;20083;-52
2022/05/24 04:20:43;;;;;;;5.13;2.77;;;;;;;;;;4999859;28;20084;-53
2022/05/24 04:23:12;;;;;;;4.23;2.43;;;;;;;;;;5000752;28;20014;-52
2022/05/24 04:25:37;;;;;;;7.25;3.03;;;;;;;;;;5011948;28;20406;-51
2022/05/24 04:28:03;;;;;;;4.73;2.80;;;;;;;;;;4994202;28;20026;-52
2022/05/24 04:30:28;;;;;;;8.52;2.80;;;;;;;;;;4994767;28;20716;-52
2022/05/24 04:32:53;;;;;;;5.67;2.67;;;;;;;;;;4994374;28;20504;-53
2022/05/24 04:35:18;;;;;;;5.90;2.80;;;;;;;;;;4994559;28;20560;-51
2022/05/24 04:37:44;;;;;;;7.30;3.33;;;;;;;;;;4990586;28;20026;-52
2022/05/24 04:40:09;;;;;;;6.10;2.90;;;;;;;;;;4991004;28;20100;-51
2022/05/24 04:42:35;;;;;;;4.47;2.85;;;;;;;;;;4995789;28;20260;-53
2022/05/24 04:45:01;;;;;;;4.82;2.78;;;;;;;;;;4994547;28;20049;-51
2022/05/24 04:47:31;;;;;;;5.30;2.90;;;;;;;;;;5027443;28;20022;-52
2022/05/24 04:49:57;;;;;;;5.15;3.20;;;;;;;;;;5000739;28;20065;-53
2022/05/24 04:52:26;;;;;;;6.88;2.97;;;;;;;;;;5003690;28;20416;-52
2022/05/24 04:54:51;;;;;;;5.50;3.33;;;;;;;;;;5005217;28;20025;-51
2022/05/24 04:57:16;;;;;;;5.32;3.28;;;;;;;;;;4988744;28;20830;-53
2022/05/24 04:59:42;;;;;;;5.45;3.05;;;;;;;;;;4994953;28;20029;-52
2022/05/24 05:02:07;;;;;;;7.20;3.00;;;;;;;;;;4987370;28;20033;-52
2022/05/24 05:04:32;;;;;;;7.75;3.40;;;;;;;;;;4989952;28;20019;-52
2022/05/24 05:06:58;;;;;;;6.28;2.92;;;;;;;;;;4993915;28;20382;-53
2022/05/24 05:09:23;;;;;;;6.83;3.37;;;;;;;;;;4999119;28;20030;-53
2022/05/24 05:11:48;;;;;;;5.93;3.33;;;;;;;;;;4999576;28;20264;-51
2022/05/24 05:14:14;;;;;;;5.23;3.23;;;;;;;;;;5004478;28;20297;-51
2022/05/24 05:16:39;;;;;;;6.82;3.30;;;;;;;;;;4998852;28;20494;-54
2022/05/24 05:19:09;;;;;;;6.17;3.03;;;;;;;;;;4991965;28;20037;-60
2022/05/24 05:21:34;;;;;;;5.82;3.15;;;;;;;;;;4989966;28;20396;-54
2022/05/24 05:24:00;;;;;;;7.57;3.63;;;;;;;;;;4990891;28;20102;-53
2022/05/24 05:26:25;;;;;;;7.40;3.20;;;;;;;;;;4990375;28;20720;-54
2022/05/24 05:28:51;;;;;;;6.23;2.93;;;;;;;;;;4989939;28;20037;-53
2022/05/24 05:31:16;;;;;;;6.03;3.17;;;;;;;;;;4999987;28;20289;-54
2022/05/24 05:33:41;;;;;;;7.07;2.90;;;;;;;;;;4988556;28;20482;-53
2022/05/24 05:36:07;;;;;;;6.30;3.10;;;;;;;;;;4996222;28;20579;-53
2022/05/24 05:38:32;;;;;;;5.97;3.17;;;;;;;;;;4989700;28;20276;-52
2022/05/24 05:40:58;;;;;;;4.23;2.90;;;;;;;;;;4988663;28;20293;-51
2022/05/24 05:43:23;;;;;;;6.68;3.13;;;;;;;;;;5017122;28;20270;-52
2022/05/24 05:45:55;;;;;;;4.93;2.77;;;;;;;;;;4991039;28;20036;-51
2022/05/24 05:48:20;;;;;;;7.53;3.10;;;;;;;;;;4983116;28;20272;-53
2022/05/24 05:50:47;;;;;;;7.03;3.15;;;;;;;;;;4997767;28;20022;-51
2022/05/24 05:53:12;;;;;;;7.50;3.00;;;;;;;;;;5008097;28;20022;-60
2022/05/24 05:55:37;;;;;;;5.72;3.03;;;;;;;;;;5001898;28;20148;-57
2022/05/24 05:58:03;;;;;;;6.37;3.00;;;;;;;;;;5004076;28;20080;-50
2022/05/24 06:00:28;;;;;;;6.90;3.20;;;;;;;;;;4997774;28;20289;-52
2022/05/24 06:02:53;;;;;;;6.17;3.13;;;;;;;;;;4994578;28;20327;-53
2022/05/24 06:05:18;;;;;;;7.20;3.43;;;;;;;;;;4998533;28;20437;-52
2022/05/24 06:07:44;;;;;;;5.72;3.30;;;;;;;;;;4998028;28;20267;-54
2022/05/24 06:10:09;;;;;;;5.28;2.95;;;;;;;;;;5003226;28;20006;-58
2022/05/24 06:12:35;;;;;;;6.90;3.20;;;;;;;;;;4996730;28;20543;-52
2022/05/24 06:15:00;;;;;;;5.83;3.30;;;;;;;;;;5002666;28;20013;-50
2022/05/24 06:17:25;;;;;;;4.53;3.23;;;;;;;;;;4997009;28;20269;-52
2022/05/24 06:19:50;;;;;;;6.32;3.33;;;;;;;;;;4998223;28;20882;-52
2022/05/24 06:22:16;;;;;;;5.60;3.30;;;;;;;;;;4998065;28;20180;-49
2022/05/24 06:24:41;;;;;;;5.97;3.13;;;;;;;;;;5002564;28;20291;-52
2022/05/24 06:27:06;;;;;;;6.05;3.58;;;;;;;;;;4987235;28;20033;-51
2022/05/24 06:29:32;;;;;;;8.97;3.37;;;;;;;;;;4997193;28;20050;-51
2022/05/24 06:31:58;;;;;;;7.75;3.83;;;;;;;;;;4994105;28;20034;-53
2022/05/24 06:34:23;;;;;;;6.78;3.90;;;;;;;;;;4999736;28;20047;-53
2022/05/24 06:36:49;;;;;;;8.18;3.38;;;;;;;;;;5000870;28;20083;-52
2022/05/24 06:39:14;;;;;;;4.87;3.30;;;;;;;;;;5000169;28;20037;-54
2022/05/24 06:41:39;;;;;;;7.17;3.47;;;;;;;;;;4999134;28;20351;-51
2022/05/24 06:44:05;;;;;;;6.43;3.50;;;;;;;;;;5000769;28;20272;-51
2022/05/24 06:46:31;;;;;;;6.38;3.63;;;;;;;;;;4992075;28;20026;-53
2022/05/24 06:48:56;;;;;;;4.55;3.50;;;;;;;;;;4999671;28;20030;-52
2022/05/24 06:51:21;;;;;;;7.67;3.40;;;;;;;;;;4999909;28;20018;-52
2022/05/24 06:53:47;;;;;;;7.35;3.53;;;;;;;;;;4994784;28;20423;-52
2022/05/24 06:56:12;;;;;;;6.22;3.45;;;;;;;;;;4985028;28;20033;-51
2022/05/24 06:58:37;;;;;;;5.50;3.63;;;;;;;;;;4997711;28;20022;-55
2022/05/24 07:03:47;;;;;;;6.22;2.85;;;;;;;;;;4999798;28;20268;-52
2022/05/24 07:06:15;;;;;;;5.60;3.47;;;;;;;;;;5000505;28;20014;-49
2022/05/24 07:08:40;;;;;;;5.40;3.25;;;;;;;;;;4997802;28;20014;-52
2022/05/24 07:11:05;;;;;;;5.50;3.67;;;;;;;;;;4995743;28;20083;-53
2022/05/24 07:13:30;;;;;;;7.45;3.60;;;;;;;;;;4996369;28;20030;-52
2022/05/24 07:15:56;;;;;;;6.67;3.80;;;;;;;;;;4984621;28;20136;-53
2022/05/24 07:18:21;;;;;;;6.97;3.78;;;;;;;;;;5003297;28;20092;-52
2022/05/24 07:20:47;;;;;;;6.45;3.85;;;;;;;;;;4998024;28;20119;-52
2022/05/24 07:23:14;;;;;;;6.25;3.80;;;;;;;;;;4995846;28;20531;-51
2022/05/24 07:25:41;;;;;;;5.75;4.13;;;;;;;;;;5000175;28;20654;-50
2022/05/24 07:28:06;;;;;;;10.32;4.43;;;;;;;;;;5002896;28;20312;-52
2022/05/24 07:30:32;;;;;;;6.22;4.13;;;;;;;;;;4997799;28;20145;-51
2022/05/24 07:32:58;;;;;;;9.18;3.85;;;;;;;;;;4996480;28;20022;-54
2022/05/24 07:35:23;;;;;;;9.73;3.80;;;;;;;;;;4992992;28;20022;-53
2022/05/24 07:37:48;;;;;;;5.33;3.50;;;;;;;;;;4992461;28;21074;-52
2022/05/24 07:45:51;;;;;;;7.82;4.13;;;;;;;;;;4997632;28;20543;-52
2022/05/24 07:48:16;;;;;;;5.80;3.80;;;;;;;;;;4997661;28;20025;-51
2022/05/24 07:50:41;;;;;;;9.18;3.70;;;;;;;;;;4997935;28;20466;-52
2022/05/24 07:53:08;;;;;;;6.20;3.93;;;;;;;;;;5001357;28;20646;-52
2022/05/24 07:55:33;;;;;;;7.68;3.92;;;;;;;;;;4999017;28;20307;-51
2022/05/24 07:57:58;;;;;;;8.02;3.80;;;;;;;;;;5012779;28;20029;-53
2022/05/24 08:00:23;;;;;;;8.20;3.83;;;;;;;;;;4990984;28;20095;-51
2022/05/24 08:02:50;;;;;;;7.07;3.75;;;;;;;;;;4999815;28;20104;-50
2022/05/24 08:05:15;;;;;;;9.68;3.67;;;;;;;;;;4996676;28;20029;-52
2022/05/24 08:07:40;;;;;;;7.20;3.73;;;;;;;;;;4996953;28;20769;-56
2022/05/24 08:10:06;;;;;;;6.25;3.72;;;;;;;;;;5002918;28;20285;-52
2022/05/24 08:12:32;;;;;;;8.23;4.18;;;;;;;;;;5000276;28;20032;-52
2022/05/24 08:14:58;;;;;;;7.03;3.58;;;;;;;;;;4994397;28;20104;-52
2022/05/24 08:17:23;;;;;;;6.70;3.65;;;;;;;;;;4999095;28;20029;-53
2022/05/24 08:19:48;;;;;;;4.57;3.60;;;;;;;;;;4996217;28;20033;-52
2022/05/24 08:22:13;;;;;;;7.90;3.50;;;;;;;;;;4997950;28;20061;-51
2022/05/24 08:24:38;;;;;;;7.80;3.70;;;;;;;;;;4999520;28;20028;-50
2022/05/24 08:27:04;;;;;;;6.67;4.17;;;;;;;;;;4997908;28;20029;-51
2022/05/24 08:29:29;;;;;;;6.78;3.92;;;;;;;;;;4998749;28;20145;-50
2022/05/24 08:31:54;;;;;;;8.03;4.63;;;;;;;;;;4993113;28;20025;-50
2022/05/24 08:34:19;;;;;;;9.73;4.20;;;;;;;;;;5000822;28;20037;-54
2022/05/24 08:36:45;;;;;;;7.07;3.60;;;;;;;;;;5000474;28;20675;-51
2022/05/24 08:39:10;;;;;;;6.07;3.83;;;;;;;;;;4999252;28;20420;-52
2022/05/24 08:41:50;;;;;;;9.80;4.13;;;;;;;;;;5000401;28;20299;-56
2022/05/24 08:49:59;;;;;;;7.75;3.50;;;;;;;;;;4997354;28;20040;-53
2022/05/24 08:52:27;;;;;;;6.67;3.90;;;;;;;;;;5012728;28;20014;-53
2022/05/24 08:54:53;;;;;;;9.68;4.65;;;;;;;;;;5004483;28;20062;-53
2022/05/24 08:57:20;;;;;;;6.30;3.55;;;;;;;;;;4997538;28;20084;-51
2022/05/24 08:59:47;;;;;;;9.38;3.72;;;;;;;;;;5016160;28;20022;-51
2022/05/24 09:02:12;;;;;;;6.07;3.95;;;;;;;;;;5013461;28;21334;-52
2022/05/24 09:04:37;;;;;;;7.85;4.18;;;;;;;;;;4996910;28;21907;-52
2022/05/24 09:07:15;;;;;;;8.60;3.80;;;;;;;;;;4999116;28;20306;-51
2022/05/24 09:09:49;;;;;;;6.40;3.75;;;;;;;;;;5015026;28;20269;-51
2022/05/24 09:12:21;;;;;;;8.18;3.92;;;;;;;;;;5012077;28;20022;-51
2022/05/24 09:17:50;;;;;;;6.30;3.42;;;;;;;;;;4992700;28;20172;-52
2022/05/24 09:20:24;;;;;;;6.82;4.05;;;;;;;;;;4978492;28;20013;-51
2022/05/24 09:22:50;;;;;;;6.13;4.05;;;;;;;;;;4997003;28;20037;-57
2022/05/24 09:25:15;;;;;;;6.22;3.97;;;;;;;;;;4998081;28;20169;-52
2022/05/24 09:27:49;;;;;;;5.78;3.95;;;;;;;;;;4993307;28;20529;-51
2022/05/24 09:30:36;;;;;;;5.97;3.50;;;;;;;;;;4992281;28;20063;-52
2022/05/24 09:33:20;;;;;;;7.03;3.97;;;;;;;;;;4994364;28;20026;-51
2022/05/24 09:35:48;;;;;;;6.75;3.95;;;;;;;;;;4989206;28;20022;-50
2022/05/24 09:38:14;;;;;;;6.88;3.80;;;;;;;;;;5007729;28;20520;-52
2022/05/24 09:41:09;;;;;;;8.82;3.95;;;;;;;;;;4994897;28;20065;-51
2022/05/24 09:43:35;;;;;;;6.72;4.03;;;;;;;;;;4993906;28;20117;-52
2022/05/24 09:46:05;;;;;;;5.55;3.60;;;;;;;;;;5010301;28;20034;-50
2022/05/24 09:48:31;;;;;;;7.18;3.88;;;;;;;;;;4998471;28;20508;-55
2022/05/24 09:50:57;;;;;;;5.50;3.55;;;;;;;;;;5000306;28;20091;-53
2022/05/24 09:53:26;;;;;;;7.22;3.97;;;;;;;;;;4999748;28;20503;-52
2022/05/24 09:55:51;;;;;;;6.13;4.28;;;;;;;;;;4989831;28;20072;-53
2022/05/24 09:58:32;;;;;;;7.23;4.30;;;;;;;;;;5002126;28;20029;-53
2022/05/24 10:00:57;;;;;;;6.75;4.13;;;;;;;;;;5000395;28;20715;-52
2022/05/24 10:03:23;;;;;;;10.50;4.63;;;;;;;;;;4998194;28;20579;-54
2022/05/24 10:06:07;;;;;;;9.15;4.72;;;;;;;;;;4990214;28;20034;-54
2022/05/24 10:08:36;;;;;;;9.68;4.93;;;;;;;;;;4999698;28;20030;-54
2022/05/24 10:11:01;;;;;;;7.15;4.80;;;;;;;;;;5003896;28;20287;-53
2022/05/24 10:13:29;;;;;;;8.60;4.60;;;;;;;;;;5002044;28;20523;-53
2022/05/24 10:16:01;;;;;;;6.90;4.70;;;;;;;;;;4995801;28;20347;-52
2022/05/24 10:18:32;;;;;;;7.22;4.60;;;;;;;;;;5019239;28;20080;-51
2022/05/24 10:21:00;;;;;;;7.78;4.78;;;;;;;;;;4984762;28;20881;-52
2022/05/24 10:23:35;;;;;;;8.25;4.57;;;;;;;;;;4989045;28;20029;-51
2022/05/24 10:26:19;;;;;;;8.95;4.70;;;;;;;;;;4990153;28;20525;-51
2022/05/24 10:29:16;;;;;;;7.18;4.75;;;;;;;;;;4994798;28;20144;-53
2022/05/24 10:31:57;;;;;;;6.82;4.93;;;;;;;;;;4996787;28;20063;-53
2022/05/24 10:40:21;;;;;;;8.30;4.82;;;;;;;;;;4998067;28;20044;-53
2022/05/24 10:42:56;;;;;;;5.97;5.00;;;;;;;;;;5000198;28;20244;-54
2022/05/24 10:45:51;;;;;;;6.25;4.72;;;;;;;;;;4999033;28;20105;-52
2022/05/24 10:48:25;;;;;;;9.13;5.15;;;;;;;;;;5000559;28;20517;-53
2022/05/24 10:50:55;;;;;;;7.90;4.80;;;;;;;;;;4999439;28;20561;-52
2022/05/24 10:53:22;;;;;;;10.85;4.90;;;;;;;;;;5000074;28;20026;-53
2022/05/24 10:56:00;;;;;;;8.65;5.88;;;;;;;;;;4993311;28;20578;-52
2022/05/24 10:58:25;;;;;;;11.98;5.30;;;;;;;;;;4997674;28;20563;-53
2022/05/24 11:01:20;;;;;;;7.20;5.43;;;;;;;;;;4999287;28;20025;-54
2022/05/24 11:03:47;;;;;;;8.65;5.25;;;;;;;;;;4995019;28;20311;-51
2022/05/24 11:06:31;;;;;;;9.75;5.90;;;;;;;;;;5003244;28;20708;-55
2022/05/24 11:08:59;;;;;;;7.60;5.10;;;;;;;;;;5002827;28;20493;-53
2022/05/24 11:11:48;;;;;;;8.05;4.60;;;;;;;;;;5003231;28;20025;-54
2022/05/24 11:14:22;;;;;;;11.40;5.78;;;;;;;;;;4999383;28;20269;-53
2022/05/24 11:16:48;;;;;;;10.63;4.78;;;;;;;;;;4993586;28;20469;-53
2022/05/24 11:19:14;;;;;;;8.68;4.63;;;;;;;;;;5000556;28;20109;-52
2022/05/24 11:21:41;;;;;;;8.23;5.20;;;;;;;;;;4999103;28;20049;-55
2022/05/24 11:24:08;;;;;;;9.85;4.88;;;;;;;;;;5000973;28;20116;-56
2022/05/24 11:26:35;;;;;;;10.02;4.70;;;;;;;;;;4997743;28;20660;-54
2022/05/24 11:29:17;;;;;;;10.55;5.47;;;;;;;;;;4999238;28;20073;-53
2022/05/24 11:31:42;;;;;;;8.55;5.13;;;;;;;;;;5014627;28;20018;-55
2022/05/24 11:34:12;;;;;;;8.00;5.03;;;;;;;;;;5000528;28;20084;-53
2022/05/24 11:37:04;;;;;;;8.20;5.20;;;;;;;;;;4993819;28;20064;-55
2022/05/24 11:39:30;;;;;;;10.25;5.03;;;;;;;;;;4996725;28;20092;-53
2022/05/24 11:42:14;;;;;;;9.55;5.07;;;;;;;;;;4998407;28;20566;-55
2022/05/24 11:44:39;;;;;;;11.10;5.93;;;;;;;;;;4986279;28;20019;-53
2022/05/24 11:47:05;;;;;;;8.13;5.30;;;;;;;;;;4996438;28;20021;-54
2022/05/24 11:49:30;;;;;;;7.80;5.15;;;;;;;;;;4998236;28;20088;-52
2022/05/24 11:51:58;;;;;;;8.60;5.30;;;;;;;;;;4999713;28;20465;-53
2022/05/24 11:54:23;;;;;;;9.98;5.50;;;;;;;;;;4999427;28;20039;-53
2022/05/24 11:57:01;;;;;;;8.00;5.43;;;;;;;;;;4998029;28;20022;-54
2022/05/24 11:59:38;;;;;;;8.65;5.05;;;;;;;;;;5001059;28;20655;-53
2022/05/24 12:07:53;;;;;;;10.60;5.30;;;;;;;;;;4992644;28;20029;-53
2022/05/24 12:08:24;;;;;;;7.32;4.70;;;;;;;;;;5002299;28;20116;-54
2022/05/24 12:10:51;;;;;;;9.73;5.80;;;;;;;;;;4999945;28;20018;-54
2022/05/24 12:13:29;;;;;;;8.63;5.20;;;;;;;;;;5000372;28;20018;-52
2022/05/24 12:15:56;;;;;;;6.82;4.95;;;;;;;;;;5000941;28;20115;-52
2022/05/24 12:18:24;;;;;;;8.20;5.13;;;;;;;;;;4997210;28;20108;-51
2022/05/24 12:20:49;;;;;;;6.65;5.47;;;;;;;;;;4995405;28;20041;-50
2022/05/24 12:23:29;;;;;;;12.00;5.33;;;;;;;;;;4999077;28;20014;-52
2022/05/24 12:25:55;;;;;;;8.32;5.40;;;;;;;;;;4998861;28;20112;-51
2022/05/24 12:28:24;;;;;;;10.80;5.07;;;;;;;;;;4993087;28;20120;-53
2022/05/24 12:30:49;;;;;;;7.90;5.55;;;;;;;;;;5014780;28;20291;-51
2022/05/24 12:33:18;;;;;;;7.45;5.18;;;;;;;;;;5000792;28;20026;-53
2022/05/24 12:35:55;;;;;;;9.35;5.20;;;;;;;;;;4998265;28;20022;-52
2022/05/24 12:38:21;;;;;;;9.27;4.88;;;;;;;;;;5016948;28;20013;-52
2022/05/24 12:40:46;;;;;;;8.20;5.00;;;;;;;;;;4998001;28;20038;-52
2022/05/24 12:43:15;;;;;;;9.70;5.30;;;;;;;;;;5000765;28;20022;-52
2022/05/24 12:45:41;;;;;;;8.85;5.15;;;;;;;;;;5000500;28;20033;-52
2022/05/24 12:48:11;;;;;;;7.28;5.20;;;;;;;;;;5001513;28;20033;-53
2022/05/24 12:50:37;;;;;;;8.57;5.43;;;;;;;;;;5001423;28;20029;-51
2022/05/24 12:53:09;;;;;;;8.43;5.50;;;;;;;;;;5000918;28;20030;-53
2022/05/24 12:58:25;;;;;;;10.02;5.55;;;;;;;;;;5000654;28;20044;-53
2022/05/24 13:00:50;;;;;;;9.07;5.70;;;;;;;;;;5002077;28;20036;-54
2022/05/24 13:03:24;;;;;;;8.00;4.90;;;;;;;;;;5002784;28;20018;-54
2022/05/24 13:05:55;;;;;;;7.97;5.07;;;;;;;;;;5000620;28;20050;-54
2022/05/24 13:08:21;;;;;;;12.05;5.43;;;;;;;;;;4999337;28;20002;-53
2022/05/24 13:10:48;;;;;;;8.52;5.20;;;;;;;;;;5017659;28;20034;-54
2022/05/24 13:13:18;;;;;;;9.02;5.50;;;;;;;;;;5016593;28;20018;-52
2022/05/24 13:15:53;;;;;;;7.72;5.50;;;;;;;;;;5020134;28;20069;-51
2022/05/24 13:18:22;;;;;;;7.22;5.35;;;;;;;;;;5000800;28;20002;-52
2022/05/24 13:20:52;;;;;;;8.00;4.63;;;;;;;;;;5005477;28;20049;-53
2022/05/24 13:23:17;;;;;;;8.07;5.60;;;;;;;;;;5000276;28;20104;-53
2022/05/24 13:25:47;;;;;;;7.10;5.30;;;;;;;;;;5002461;28;20025;-54
2022/05/24 13:28:12;;;;;;;;;;;;;;;;;;5004264;28;20975;-53
2022/05/24 13:33:46;;;;;;;9.07;5.30;;;;;;;;;;4980845;28;20386;-52
2022/05/24 13:36:11;;;;;;;9.77;5.40;;;;;;;;;;5012167;28;20048;-52
2022/05/24 13:38:37;;;;;;;6.63;4.83;;;;;;;;;;5002458;28;20022;-53
2022/05/24 13:41:02;;;;;;;8.85;5.18;;;;;;;;;;5020502;28;20061;-53
2022/05/24 13:43:45;;;;;;;9.40;5.30;;;;;;;;;;5005098;28;20025;-51
2022/05/24 13:46:19;;;;;;;8.35;6.00;;;;;;;;;;5018345;28;20552;-52
2022/05/24 13:48:51;;;;;;;7.05;5.10;;;;;;;;;;5004215;28;20634;-52
2022/05/24 13:51:17;;;;;;;7.32;4.97;;;;;;;;;;5004815;28;20026;-52
2022/05/24 13:53:42;;;;;;;6.45;5.18;;;;;;;;;;5001113;28;20427;-51
2022/05/24 13:56:19;;;;;;;9.55;4.88;;;;;;;;;;5003430;28;20037;-52
2022/05/24 13:58:49;;;;;;;8.68;5.28;;;;;;;;;;5001549;28;20033;-52
2022/05/24 14:01:25;;;;;;;8.23;5.10;;;;;;;;;;4999291;28;20136;-52
2022/05/24 14:03:50;;;;;;;7.35;5.20;;;;;;;;;;4992546;28;20056;-52
2022/05/24 14:06:22;;;;;;;6.72;5.03;;;;;;;;;;5002645;28;20080;-52
2022/05/24 14:08:49;;;;;;;8.20;5.43;;;;;;;;;;5004002;28;20022;-53
2022/05/24 14:11:15;;;;;;;5.93;5.15;;;;;;;;;;5002107;28;20059;-54
2022/05/24 14:13:41;;;;;;;7.18;5.18;;;;;;;;;;5019216;28;20072;-51
2022/05/24 14:16:07;;;;;;;8.77;5.38;;;;;;;;;;5003266;28;20021;-53
2022/05/24 14:18:32;;;;;;;6.55;5.50;;;;;;;;;;5004216;28;20140;-52
2022/05/24 14:20:57;;;;;;;9.45;5.40;;;;;;;;;;4997969;28;20037;-53
2022/05/24 14:23:22;;;;;;;8.23;4.83;;;;;;;;;;5003954;28;20155;-52
2022/05/24 14:25:48;;;;;;;5.90;5.13;;;;;;;;;;5005256;28;20048;-52
2022/05/24 14:28:14;;;;;;;8.15;5.75;;;;;;;;;;5000631;28;20053;-53
2022/05/24 14:30:39;;;;;;;9.27;5.22;;;;;;;;;;4999143;28;20034;-53
2022/05/24 14:33:05;;;;;;;6.47;5.07;;;;;;;;;;5000369;28;20083;-55
2022/05/24 14:35:30;;;;;;;12.65;5.90;;;;;;;;;;5001095;28;20485;-54
2022/05/24 14:37:56;;;;;;;10.77;6.20;;;;;;;;;;5004842;28;20022;-53
2022/05/24 14:40:21;;;;;;;10.75;5.93;;;;;;;;;;5004552;28;20095;-54
2022/05/24 14:42:47;;;;;;;10.25;5.95;;;;;;;;;;4999425;28;20482;-58
2022/05/24 14:45:12;;;;;;;12.70;5.80;;;;;;;;;;5016343;28;20018;-51
2022/05/24 14:47:37;;;;;;;7.93;5.87;;;;;;;;;;4995505;28;20022;-53
2022/05/24 14:50:03;;;;;;;8.67;6.20;;;;;;;;;;4986361;28;20026;-53
2022/05/24 14:52:28;;;;;;;9.95;5.43;;;;;;;;;;4989851;28;20788;-53
2022/05/24 14:54:53;;;;;;;9.82;5.30;;;;;;;;;;4986713;28;20642;-53
2022/05/24 14:57:19;;;;;;;8.97;4.90;;;;;;;;;;4988729;28;20461;-51
2022/05/24 14:59:45;;;;;;;8.60;5.00;;;;;;;;;;4991089;28;20275;-52
2022/05/24 15:02:11;;;;;;;6.22;4.60;;;;;;;;;;4986526;28;20417;-54
2022/05/24 15:04:37;;;;;;;10.30;4.80;;;;;;;;;;4985077;28;20029;-54
2022/05/24 15:15:22;;;;;;;7.25;4.05;;;;;;;;;;4993030;28;20046;-52
2022/05/24 15:17:48;;;;;;;8.27;4.15;;;;;;;;;;4994225;28;20034;-53
2022/05/24 15:20:14;;;;;;;10.25;4.03;;;;;;;;;;5000107;28;20018;-54
2022/05/24 15:22:44;;;;;;;7.05;3.72;;;;;;;;;;4993878;28;20065;-51
2022/05/24 15:25:09;;;;;;;6.32;3.67;;;;;;;;;;5001646;28;20133;-54
2022/05/24 15:27:35;;;;;;;9.52;3.92;;;;;;;;;;5001147;28;20121;-52
2022/05/24 15:30:00;;;;;;;13.27;4.13;;;;;;;;;;5014304;28;20847;-52
2022/05/24 15:32:26;;;;;;;7.47;4.10;;;;;;;;;;4998603;28;20014;-52
2022/05/24 15:34:51;;;;;;;9.17;3.93;;;;;;;;;;4997722;28;20025;-52
2022/05/24 15:37:16;;;;;;;6.57;3.53;;;;;;;;;;4995212;28;20006;-52
2022/05/24 15:39:42;;;;;;;10.67;4.23;;;;;;;;;;4997483;28;20041;-52